Time;durP1;ratioP1;P1;durP2;ratioP2;P2;SDS_P1;SDS_P2;PMS_P1;PMS_P2;Temp;Humidity;BMP_temperature;BMP_pressure;BME280_temperature;BME280_humidity;BME280_pressure;Samples;Min_cycle;Max_cycle;Signal;HPM_P1;HPM_P2
2021/09/28 00:00:33;;;;;;;;;;;;;;;17.66;62.89;97133.66;6245471;23;19916;-74
2021/09/28 00:03:00;;;;;;;;;;;;;;;17.61;63.36;97133.50;6245159;23;20334;-74
2021/09/28 00:05:29;;;;;;;;;;;;;;;17.57;63.59;97124.41;6245522;23;19916;-74
2021/09/28 00:07:56;;;;;;;;;;;;;;;17.52;63.58;97129.50;6245332;23;19922;-74
2021/09/28 00:10:24;;;;;;;;;;;;;;;17.48;63.98;97131.75;6244771;23;19915;-74
2021/09/28 00:12:51;;;;;;;;;;;;;;;17.46;63.57;97140.91;6245237;23;19920;-74
2021/09/28 00:15:20;;;;;;;;;;;;;;;17.46;63.77;97139.06;6245562;23;19915;-74
2021/09/28 00:17:47;;;;;;;;;;;;;;;17.53;63.71;97152.22;6244951;23;20366;-74
2021/09/28 00:20:15;;;;;;;;;;;;;;;17.60;63.35;97158.28;6244936;23;20236;-74
2021/09/28 00:22:43;;;;;;;;;;;;;;;17.66;63.17;97165.31;6244760;23;19919;-74
2021/09/28 00:25:11;;;;;;;;;;;;;;;17.75;62.92;97170.34;6245029;23;20010;-74
2021/09/28 00:27:38;;;;;;;;;;;;;;;17.80;62.91;97173.97;6244933;23;20343;-74
2021/09/28 00:30:06;;;;;;;;;;;;;;;17.85;62.63;97176.81;6244339;23;19942;-74
2021/09/28 00:32:33;;;;;;;;;;;;;;;17.91;62.58;97185.72;6247189;23;19915;-74
2021/09/28 00:35:01;;;;;;;;;;;;;;;17.96;62.80;97183.22;6246544;23;19926;-75
2021/09/28 00:37:28;;;;;;;;;;;;;;;17.98;62.19;97189.13;6246597;23;19973;-73
2021/09/28 00:39:57;;;;;;;;;;;;;;;18.01;62.39;97191.31;6244657;23;19916;-75
2021/09/28 00:42:24;;;;;;;;;;;;;;;18.04;63.06;97184.81;6245720;23;19922;-74
2021/09/28 00:44:52;;;;;;;;;;;;;;;18.06;63.11;97194.13;6245179;23;20369;-74
2021/09/28 00:47:19;;;;;;;;;;;;;;;18.08;63.30;97189.44;6244440;23;20279;-74
2021/09/28 00:49:47;;;;;;;;;;;;;;;18.08;64.48;97197.38;6252541;22;19911;-74
2021/09/28 00:52:17;;;;;;;;;;;;;;;18.07;64.16;97190.47;6270670;23;19937;-74
2021/09/28 00:54:45;;;;;;;;;;;;;;;18.07;64.19;97190.47;6268727;23;19916;-74
2021/09/28 00:57:14;;;;;;;;;;;;;;;18.07;63.62;97193.09;6246739;23;19966;-74
2021/09/28 00:59:42;;;;;;;;;;;;;;;18.08;65.10;97197.38;6244527;23;19916;-74
2021/09/28 01:02:09;;;;;;;;;;;;;;;18.06;64.62;97207.34;6253991;23;19915;-73
2021/09/28 01:04:37;;;;;;;;;;;;;;;18.05;64.27;97204.91;6269132;23;19922;-74
2021/09/28 01:07:06;;;;;;;;;;;;;;;18.05;64.12;97207.53;6251062;23;19923;-74
2021/09/28 01:09:34;;;;;;;;;;;;;;;18.06;64.82;97204.69;6244385;23;19915;-74
2021/09/28 01:12:02;;;;;;;;;;;;;;;18.06;64.46;97215.25;6244833;23;19915;-74
2021/09/28 01:14:30;;;;;;;;;;;;;;;18.04;64.26;97221.78;6244731;23;19916;-73
2021/09/28 01:16:58;;;;;;;;;;;;;;;18.03;64.60;97231.50;6245233;23;19935;-74
2021/09/28 01:19:25;;;;;;;;;;;;;;;18.01;65.17;97233.53;6244582;23;19923;-74
2021/09/28 01:21:54;;;;;;;;;;;;;;;17.96;64.24;97241.31;6245132;23;20232;-74
2021/09/28 01:24:21;;;;;;;;;;;;;;;17.89;63.05;97246.63;6244060;23;19927;-74
2021/09/28 01:26:48;;;;;;;;;;;;;;;17.83;62.08;97257.22;6245297;23;20267;-74
2021/09/28 01:29:16;;;;;;;;;;;;;;;17.76;61.77;97246.66;6244011;23;19915;-74
2021/09/28 01:31:46;;;;;;;;;;;;;;;17.74;61.42;97247.91;6244784;23;19915;-74
2021/09/28 01:34:15;;;;;;;;;;;;;;;17.70;61.17;97250.94;6244883;23;19966;-73
2021/09/28 01:36:43;;;;;;;;;;;;;;;17.68;60.98;97260.91;6244535;23;20259;-74
2021/09/28 01:39:12;;;;;;;;;;;;;;;17.66;60.92;97262.94;6243729;23;19923;-74
2021/09/28 01:41:39;;;;;;;;;;;;;;;17.64;61.33;97269.47;6245151;23;19915;-74
2021/09/28 01:44:07;;;;;;;;;;;;;;;17.60;61.64;97265.63;6245080;23;19922;-74
2021/09/28 01:46:36;;;;;;;;;;;;;;;17.58;61.83;97278.19;6244957;23;19916;-74
2021/09/28 01:49:03;;;;;;;;;;;;;;;17.56;61.49;97286.34;6244077;23;19919;-74
2021/09/28 01:51:31;;;;;;;;;;;;;;;17.55;61.55;97286.53;6246671;23;19939;-74
2021/09/28 01:53:58;;;;;;;;;;;;;;;17.53;60.61;97288.59;6246643;23;19916;-74
2021/09/28 01:56:27;;;;;;;;;;;;;;;17.50;60.09;97289.81;6246738;23;19927;-74
2021/09/28 01:58:56;;;;;;;;;;;;;;;17.45;60.29;97292.28;6246392;23;19923;-74
2021/09/28 02:01:23;;;;;;;;;;;;;;;17.40;60.35;97303.41;6246635;23;19966;-74
2021/09/28 02:03:51;;;;;;;;;;;;;;;17.37;60.54;97305.69;6250431;23;19950;-73
2021/09/28 02:06:18;;;;;;;;;;;;;;;17.35;60.62;97308.53;6272866;23;19915;-74
2021/09/28 02:08:46;;;;;;;;;;;;;;;17.35;60.62;97319.06;6271442;23;19922;-74
2021/09/28 02:11:13;;;;;;;;;;;;;;;17.35;60.95;97308.53;6267544;23;19930;-74
2021/09/28 02:13:42;;;;;;;;;;;;;;;17.32;61.25;97314.22;6250812;23;19916;-74
2021/09/28 02:16:09;;;;;;;;;;;;;;;17.30;60.83;97321.53;6249667;23;19919;-74
2021/09/28 02:18:37;;;;;;;;;;;;;;;17.26;60.65;97321.13;6248285;23;19922;-74
2021/09/28 02:21:04;;;;;;;;;;;;;;;17.23;61.00;97324.19;6247513;23;19915;-74
2021/09/28 02:23:34;;;;;;;;;;;;;;;17.19;61.04;97336.16;6259503;22;19916;-81
2021/09/28 02:26:13;;;;;;;;;;;;;;;17.14;60.74;97338.56;6272187;22;19922;-80
2021/09/28 02:28:57;;;;;;;;;;;;;;;17.07;60.97;97332.50;6272153;23;19938;-80
2021/09/28 02:31:28;;;;;;;;;;;;;;;17.02;61.54;97333.13;6274142;23;19946;-80
2021/09/28 02:34:06;;;;;;;;;;;;;;;16.99;61.46;97335.34;6273675;23;19915;-80
2021/09/28 02:36:38;;;;;;;;;;;;;;;16.94;61.53;97332.53;6273867;23;19947;-80
2021/09/28 02:39:09;;;;;;;;;;;;;;;16.89;61.72;97336.56;6273742;23;19922;-80
2021/09/28 02:41:39;;;;;;;;;;;;;;;16.89;61.49;97331.31;6274078;23;19919;-80
2021/09/28 02:44:16;;;;;;;;;;;;;;;16.87;61.43;97325.44;6274078;23;19925;-81
2021/09/28 02:46:47;;;;;;;;;;;;;;;16.86;61.14;97323.00;6272664;23;19963;-80
2021/09/28 02:49:22;;;;;;;;;;;;;;;16.85;61.17;97324.00;6273518;23;19923;-81
2021/09/28 02:51:52;;;;;;;;;;;;;;;16.81;61.39;97320.97;6273664;23;19927;-80
2021/09/28 02:54:21;;;;;;;;;;;;;;;16.79;61.49;97320.34;6273269;23;19915;-80
2021/09/28 02:56:50;;;;;;;;;;;;;;;16.78;61.59;97315.28;6273701;23;19922;-80
2021/09/28 02:59:23;;;;;;;;;;;;;;;16.73;61.19;97315.09;6273927;22;19900;-80
2021/09/28 03:01:52;;;;;;;;;;;;;;;16.70;61.05;97316.28;6247471;23;19919;-80
2021/09/28 03:04:22;;;;;;;;;;;;;;;16.65;61.29;97322.16;6273510;23;19899;-80
2021/09/28 03:06:53;;;;;;;;;;;;;;;16.63;61.27;97321.56;6273073;23;19916;-79
2021/09/28 03:09:22;;;;;;;;;;;;;;;16.57;61.62;97317.09;6271710;23;19900;-81
2021/09/28 03:11:53;;;;;;;;;;;;;;;16.53;61.58;97322.97;6274426;23;20302;-81
2021/09/28 03:14:29;;;;;;;;;;;;;;;16.48;61.90;97313.84;6274515;23;19907;-79
2021/09/28 03:16:59;;;;;;;;;;;;;;;16.46;62.21;97323.78;6274364;23;19915;-80
2021/09/28 03:19:28;;;;;;;;;;;;;;;16.43;62.14;97318.91;6274316;22;20168;-80
2021/09/28 03:21:58;;;;;;;;;;;;;;;16.43;62.49;97316.28;6273498;23;19938;-79
2021/09/28 03:24:27;;;;;;;;;;;;;;;16.44;62.47;97317.91;6274060;23;19899;-80
2021/09/28 03:26:57;;;;;;;;;;;;;;;16.44;62.48;97315.28;6273910;23;19928;-80
2021/09/28 03:29:32;;;;;;;;;;;;;;;16.44;62.69;97311.81;6273723;22;19943;-81
2021/09/28 03:32:00;;;;;;;;;;;;;;;16.44;62.70;97312.66;6273065;23;19965;-80
2021/09/28 03:34:29;;;;;;;;;;;;;;;16.44;62.65;97317.91;6273298;23;19911;-80
2021/09/28 03:37:06;;;;;;;;;;;;;;;16.45;62.47;97319.53;6272649;23;19930;-81
2021/09/28 03:39:36;;;;;;;;;;;;;;;16.46;62.38;97322.97;6269618;23;19915;-80
2021/09/28 03:42:15;;;;;;;;;;;;;;;16.47;62.77;97327.22;6271222;22;19915;-80
2021/09/28 03:44:44;;;;;;;;;;;;;;;16.44;62.61;97325.81;6266006;23;19915;-81
2021/09/28 03:47:15;;;;;;;;;;;;;;;16.44;62.50;97338.16;6266560;23;19919;-80
2021/09/28 03:49:47;;;;;;;;;;;;;;;16.41;62.50;97331.47;6271183;23;19915;-81
2021/09/28 03:52:17;;;;;;;;;;;;;;;16.40;62.67;97336.94;6270987;23;19915;-80
2021/09/28 03:54:46;;;;;;;;;;;;;;;16.37;62.69;97332.88;6270087;23;19916;-80
2021/09/28 03:57:13;;;;;;;;;;;;;;;16.37;62.93;97335.50;6267410;23;19922;-80
2021/09/28 03:59:41;;;;;;;;;;;;;;;16.36;62.89;97336.53;6260234;23;19955;-81
2021/09/28 04:02:12;;;;;;;;;;;;;;;16.34;63.09;97338.56;6261714;23;19922;-80
2021/09/28 04:04:41;;;;;;;;;;;;;;;16.31;63.15;97344.22;6255218;23;19920;-79
2021/09/28 04:07:13;;;;;;;;;;;;;;;16.27;63.38;97338.53;6246816;23;19915;-80
2021/09/28 04:09:40;;;;;;;;;;;;;;;16.23;63.01;97337.31;6246818;23;19922;-79
2021/09/28 04:12:08;;;;;;;;;;;;;;;16.21;62.92;97338.53;6246821;23;19943;-82
2021/09/28 04:14:37;;;;;;;;;;;;;;;16.17;63.32;97345.19;6246094;23;19919;-79
2021/09/28 04:17:05;;;;;;;;;;;;;;;16.13;63.30;97341.34;6248881;23;20259;-80
2021/09/28 04:19:34;;;;;;;;;;;;;;;16.12;63.21;97350.25;6250823;23;19916;-81
2021/09/28 04:22:03;;;;;;;;;;;;;;;16.06;63.42;97342.13;6249945;23;20429;-81
2021/09/28 04:24:31;;;;;;;;;;;;;;;16.04;63.28;97344.13;6254341;23;19935;-81
2021/09/28 04:27:07;;;;;;;;;;;;;;;16.03;63.62;97342.53;6252702;23;19922;-81
2021/09/28 04:29:37;;;;;;;;;;;;;;;16.03;63.79;97353.06;6251099;23;19922;-81
2021/09/28 04:32:05;;;;;;;;;;;;;;;16.02;63.63;97355.88;6250819;23;19915;-81
2021/09/28 04:34:34;;;;;;;;;;;;;;;15.98;63.41;97347.59;6247387;23;19927;-80
2021/09/28 04:37:02;;;;;;;;;;;;;;;15.98;63.73;97350.22;6247613;23;19939;-80
2021/09/28 04:39:30;;;;;;;;;;;;;;;15.98;63.78;97350.22;6248112;23;19926;-80
2021/09/28 04:41:58;;;;;;;;;;;;;;;15.99;63.64;97353.66;6251242;23;19915;-81
2021/09/28 04:44:26;;;;;;;;;;;;;;;15.96;63.93;97352.22;6250657;23;19916;-81
2021/09/28 04:46:54;;;;;;;;;;;;;;;15.94;63.73;97356.03;6249967;23;20393;-80
2021/09/28 04:52:20;;;;;;;;;;;;;;;15.88;63.54;97368.19;6264497;22;19921;-79
2021/09/28 04:54:48;;;;;;;;;;;;;;;15.83;63.68;97363.50;6267922;22;19942;-80
2021/09/28 04:57:21;;;;;;;;;;;;;;;15.80;64.42;97356.00;6270079;23;19982;-82
2021/09/28 04:59:55;;;;;;;;;;;;;;;15.77;64.10;97355.59;6273199;22;19939;-80
2021/09/28 05:02:28;;;;;;;;;;;;;;;15.75;64.10;97361.03;6272468;23;19964;-81
2021/09/28 05:05:01;;;;;;;;;;;;;;;15.74;64.06;97359.44;6270358;23;19915;-80
2021/09/28 05:07:42;;;;;;;;;;;;;;;15.76;64.08;97367.09;6272892;23;19900;-80
2021/09/28 05:10:13;;;;;;;;;;;;;;;15.78;64.23;97375.63;6272239;23;19938;-80
2021/09/28 05:12:44;;;;;;;;;;;;;;;15.76;64.21;97370.53;6272487;23;19930;-80
2021/09/28 05:15:17;;;;;;;;;;;;;;;15.75;64.10;97370.75;6272545;23;19906;-80
2021/09/28 05:17:52;;;;;;;;;;;;;;;15.76;63.96;97369.75;6272242;23;20015;-80
2021/09/28 05:20:25;;;;;;;;;;;;;;;15.75;64.29;97376.03;6271777;23;19916;-81
2021/09/28 05:23:07;;;;;;;;;;;;;;;15.75;64.22;97381.28;6272612;23;19915;-80
2021/09/28 05:25:43;;;;;;;;;;;;;;;15.74;63.69;97375.22;6274595;23;19907;-83
2021/09/28 05:28:18;;;;;;;;;;;;;;;15.76;63.88;97388.16;6272594;23;19916;-83
2021/09/28 05:30:54;;;;;;;;;;;;;;;15.76;63.32;97380.25;6275319;23;19916;-81
2021/09/28 05:33:23;;;;;;;;;;;;;;;15.77;63.67;97384.53;6273627;23;19915;-80
2021/09/28 05:35:55;;;;;;;;;;;;;;;15.79;63.28;97385.16;6274471;23;19922;-80
2021/09/28 05:38:28;;;;;;;;;;;;;;;15.80;63.27;97382.31;6274071;23;19960;-81
2021/09/28 05:40:59;;;;;;;;;;;;;;;15.80;63.71;97379.66;6274537;23;19959;-81
2021/09/28 05:43:41;;;;;;;;;;;;;;;15.79;63.91;97385.16;6274368;23;19919;-80
2021/09/28 05:46:11;;;;;;;;;;;;;;;15.78;63.42;97388.78;6274016;23;19959;-80
2021/09/28 05:48:41;;;;;;;;;;;;;;;15.78;63.22;97392.19;6273791;23;19919;-81
2021/09/28 05:51:27;;;;;;;;;;;;;;;15.78;63.39;97391.41;6274124;23;19916;-80
2021/09/28 05:54:02;;;;;;;;;;;;;;;15.77;63.19;97385.34;6273728;23;20339;-80
2021/09/28 05:56:36;;;;;;;;;;;;;;;15.78;63.16;97396.66;6273746;23;19915;-79
2021/09/28 05:59:16;;;;;;;;;;;;;;;15.75;63.17;97397.88;6273037;23;20344;-80
2021/09/28 06:01:48;;;;;;;;;;;;;;;15.75;63.10;97395.25;6274101;23;19900;-80
2021/09/28 06:04:22;;;;;;;;;;;;;;;15.75;63.38;97402.31;6273669;23;19998;-81
2021/09/28 06:06:52;;;;;;;;;;;;;;;15.73;63.20;97399.88;6273943;23;19919;-81
2021/09/28 06:09:27;;;;;;;;;;;;;;;15.74;63.37;97405.94;6248015;23;19899;-80
2021/09/28 06:12:02;;;;;;;;;;;;;;;15.74;63.49;97409.41;6273885;23;19919;-80
2021/09/28 06:14:34;;;;;;;;;;;;;;;15.74;63.56;97412.03;6273361;23;19916;-79
2021/09/28 06:17:09;;;;;;;;;;;;;;;15.74;63.34;97422.56;6274538;23;19904;-81
2021/09/28 06:19:37;;;;;;;;;;;;;;;15.75;63.21;97418.09;6274023;23;19915;-80
2021/09/28 06:22:10;;;;;;;;;;;;;;;15.73;63.35;97425.38;6273306;23;19916;-81
2021/09/28 06:24:52;;;;;;;;;;;;;;;15.70;63.65;97420.47;6273362;22;19919;-80
2021/09/28 06:27:32;;;;;;;;;;;;;;;15.69;63.50;97432.00;6273881;23;19938;-80
2021/09/28 06:30:04;;;;;;;;;;;;;;;15.64;64.15;97428.13;6273837;23;19965;-79
2021/09/28 06:32:38;;;;;;;;;;;;;;;15.63;63.68;97429.16;6274109;23;19916;-81
2021/09/28 06:35:26;;;;;;;;;;;;;;;15.63;63.51;97431.78;6273053;23;19915;-81
2021/09/28 06:37:54;;;;;;;;;;;;;;;15.63;64.20;97423.88;6272775;23;19937;-80
2021/09/28 06:40:25;;;;;;;;;;;;;;;15.63;63.62;97426.50;6273600;23;19964;-80
2021/09/28 06:43:08;;;;;;;;;;;;;;;15.63;63.60;97423.06;6273714;23;19962;-80
2021/09/28 06:45:40;;;;;;;;;;;;;;;15.64;63.38;97422.88;6273131;23;19959;-80
2021/09/28 06:48:15;;;;;;;;;;;;;;;15.65;63.60;97421.03;6274038;23;19899;-81
2021/09/28 06:50:45;;;;;;;;;;;;;;;15.63;63.62;97421.25;6273434;22;19934;-80
2021/09/28 06:53:18;;;;;;;;;;;;;;;15.64;63.61;97417.59;6272670;23;19963;-80
2021/09/28 06:55:49;;;;;;;;;;;;;;;15.63;63.92;97416.00;6273289;23;19899;-80
2021/09/28 06:58:24;;;;;;;;;;;;;;;15.66;63.54;97414.78;6273352;23;19923;-81
2021/09/28 07:00:56;;;;;;;;;;;;;;;15.68;63.17;97410.16;6273707;23;19959;-81
2021/09/28 07:03:27;;;;;;;;;;;;;;;15.70;63.28;97409.94;6273041;23;19915;-80
2021/09/28 07:05:59;;;;;;;;;;;;;;;15.70;63.17;97404.66;6273350;23;19900;-80
2021/09/28 07:08:32;;;;;;;;;;;;;;;15.70;63.28;97410.78;6273697;23;19899;-81
2021/09/28 07:11:05;;;;;;;;;;;;;;;15.72;63.42;97413.22;6273281;23;19915;-82
2021/09/28 07:13:37;;;;;;;;;;;;;;;15.73;62.96;97415.66;6273931;23;19923;-81
2021/09/28 07:16:09;;;;;;;;;;;;;;;15.77;63.00;97405.56;6274201;23;19922;-81
2021/09/28 07:18:41;;;;;;;;;;;;;;;15.79;62.65;97407.00;6273942;23;19922;-80
2021/09/28 07:21:11;;;;;;;;;;;;;;;15.82;62.66;97406.59;6273468;22;19907;-80
2021/09/28 07:23:49;;;;;;;;;;;;;;;15.87;62.46;97406.00;6273100;23;19930;-81
2021/09/28 07:26:20;;;;;;;;;;;;;;;15.96;62.08;97404.03;6272898;23;19916;-80
2021/09/28 07:28:58;;;;;;;;;;;;;;;16.09;61.80;97392.75;6271841;23;19926;-80
2021/09/28 07:31:28;;;;;;;;;;;;;;;16.26;61.85;97384.28;6271004;23;19926;-80
2021/09/28 07:34:10;;;;;;;;;;;;;;;16.46;61.39;97386.16;6271580;23;19911;-80
2021/09/28 07:36:42;;;;;;;;;;;;;;;16.61;59.99;97407.06;6272945;23;19900;-79
2021/09/28 07:39:16;;;;;;;;;;;;;;;16.69;59.73;97417.41;6273269;23;19926;-80
2021/09/28 07:41:55;;;;;;;;;;;;;;;16.83;59.74;97413.78;6272877;23;19915;-80
2021/09/28 07:44:26;;;;;;;;;;;;;;;17.00;59.20;97411.59;6247109;23;19900;-80
2021/09/28 07:47:05;;;;;;;;;;;;;;;17.16;58.67;97420.91;6272906;23;19899;-80
2021/09/28 07:49:40;;;;;;;;;;;;;;;17.32;58.25;97418.88;6245584;23;19943;-82
2021/09/28 07:52:14;;;;;;;;;;;;;;;17.45;57.73;97419.69;6274097;23;19916;-80
2021/09/28 07:54:51;;;;;;;;;;;;;;;17.54;57.24;97417.63;6273352;23;19915;-80
2021/09/28 07:57:51;;;;;;;;;;;;;;;17.59;57.38;97414.38;6273678;23;19916;-80
2021/09/28 08:00:28;;;;;;;;;;;;;;;17.68;57.62;97421.84;6273865;23;19900;-80
2021/09/28 08:03:10;;;;;;;;;;;;;;;17.75;57.61;97423.66;6272570;23;19916;-79
2021/09/28 08:05:53;;;;;;;;;;;;;;;17.77;57.05;97426.91;6274258;22;19900;-80
2021/09/28 08:08:25;;;;;;;;;;;;;;;17.76;57.28;97431.38;6247676;23;19911;-80
2021/09/28 08:10:57;;;;;;;;;;;;;;;17.80;57.24;97424.69;6247752;23;19899;-80
2021/09/28 08:13:34;;;;;;;;;;;;;;;17.84;56.86;97422.44;6273218;23;19931;-80
2021/09/28 08:16:06;;;;;;;;;;;;;;;17.86;56.72;97423.06;6273214;23;19947;-80
2021/09/28 08:18:43;;;;;;;;;;;;;;;17.86;56.63;97430.97;6246947;23;19915;-81
2021/09/28 08:21:16;;;;;;;;;;;;;;;17.85;56.60;97434.66;6247774;23;19900;-79
2021/09/28 08:23:55;;;;;;;;;;;;;;;17.86;56.31;97434.44;6273042;23;19915;-80
2021/09/28 08:29:22;;;;;;;;;;;;;;;17.87;56.13;97428.13;6273663;22;19959;-80
2021/09/28 08:32:04;;;;;;;;;;;;;;;17.86;56.42;97430.97;6247540;23;19938;-80
2021/09/28 08:34:41;;;;;;;;;;;;;;;17.86;56.28;97430.97;6272923;23;19915;-80
2021/09/28 08:37:16;;;;;;;;;;;;;;;17.93;56.14;97426.50;6273375;23;19905;-80
2021/09/28 08:39:48;;;;;;;;;;;;;;;18.10;56.87;97427.66;6272810;23;19931;-80
2021/09/28 08:42:23;;;;;;;;;;;;;;;18.36;56.34;97420.63;6272823;23;19918;-80
2021/09/28 08:45:08;;;;;;;;;;;;;;;18.64;55.39;97428.19;6248686;23;19915;-80
2021/09/28 08:47:39;;;;;;;;;;;;;;;18.91;55.38;97423.59;6273122;22;19899;-81
2021/09/28 08:50:14;;;;;;;;;;;;;;;19.22;52.53;97423.72;6246602;23;19922;-80
2021/09/28 08:55:46;;;;;;;;;;;;;;;20.03;52.87;97420.13;6272664;23;19964;-83
2021/09/28 08:58:24;;;;;;;;;;;;;;;20.96;51.50;97418.06;6271112;23;19938;-79
2021/09/28 09:01:05;;;;;;;;;;;;;;;22.02;48.95;97416.22;6272413;23;19938;-79
2021/09/28 09:03:41;;;;;;;;;;;;;;;22.94;45.71;97411.78;6271985;23;19916;-80
2021/09/28 09:06:18;;;;;;;;;;;;;;;23.82;44.22;97414.72;6272173;23;19916;-80
2021/09/28 09:11:38;;;;;;;;;;;;;;;23.57;43.58;97409.03;6270699;23;19937;-80
2021/09/28 09:14:22;;;;;;;;;;;;;;;23.08;44.65;97412.31;6272374;22;19916;-81
2021/09/28 09:16:57;;;;;;;;;;;;;;;22.78;44.49;97410.72;6272772;23;19959;-81
2021/09/28 09:19:30;;;;;;;;;;;;;;;22.34;44.52;97409.66;6272351;23;19922;-81
2021/09/28 09:22:02;;;;;;;;;;;;;;;22.67;45.78;97410.78;6272643;22;19912;-83
2021/09/28 09:24:46;;;;;;;;;;;;;;;23.20;43.31;97402.38;6272194;23;19938;-80
2021/09/28 09:27:16;;;;;;;;;;;;;;;22.74;44.19;97398.97;6246892;23;19938;-80
2021/09/28 09:29:45;;;;;;;;;;;;;;;22.25;44.09;97398.59;6272603;23;19926;-81
2021/09/28 09:32:26;;;;;;;;;;;;;;;21.86;44.84;97405.50;6272062;23;19930;-81
2021/09/28 09:34:56;;;;;;;;;;;;;;;21.77;46.45;97403.19;6272812;23;19946;-80
2021/09/28 09:37:37;;;;;;;;;;;;;;;22.08;45.55;97398.50;6272462;23;19922;-80
2021/09/28 09:40:11;;;;;;;;;;;;;;;22.36;44.43;97399.59;6272600;23;19930;-81
2021/09/28 09:42:54;;;;;;;;;;;;;;;22.43;44.32;97394.94;6272163;23;19938;-81
2021/09/28 09:45:30;;;;;;;;;;;;;;;22.34;43.75;97399.81;6272547;22;19963;-81
2021/09/28 09:48:01;;;;;;;;;;;;;;;22.28;44.93;97392.00;6272333;23;19915;-80
2021/09/28 09:50:36;;;;;;;;;;;;;;;22.40;44.75;97406.06;6273011;23;19900;-80
2021/09/28 09:53:07;;;;;;;;;;;;;;;22.47;44.31;97392.63;6246027;23;19899;-80
2021/09/28 09:55:43;;;;;;;;;;;;;;;22.44;43.90;97393.91;6272747;23;19935;-80
2021/09/28 09:58:17;;;;;;;;;;;;;;;22.32;44.05;97399.25;6247350;23;19899;-81
2021/09/28 10:00:45;;;;;;;;;;;;;;;22.18;44.69;97397.91;6272927;23;19916;-80
2021/09/28 10:03:18;;;;;;;;;;;;;;;22.03;44.40;97390.44;6272569;23;19927;-79
2021/09/28 10:05:47;;;;;;;;;;;;;;;21.87;44.80;97386.69;6271897;23;19911;-80
2021/09/28 10:08:20;;;;;;;;;;;;;;;21.65;44.96;97391.00;6272381;23;19915;-81
2021/09/28 10:10:56;;;;;;;;;;;;;;;21.47;45.36;97383.94;6272085;23;19906;-81
2021/09/28 10:13:57;;;;;;;;;;;;;;;21.28;45.77;97384.06;6274219;23;19923;-81
2021/09/28 10:16:39;;;;;;;;;;;;;;;21.12;46.41;97379.44;6257109;23;19922;-81
2021/09/28 10:19:40;;;;;;;;;;;;;;;21.17;46.53;97376.91;6273819;23;19915;-80
2021/09/28 10:22:25;;;;;;;;;;;;;;;21.58;47.12;97377.81;6248156;23;19915;-82
2021/09/28 10:25:17;;;;;;;;;;;;;;;22.18;45.87;97372.13;6273256;23;19915;-80
2021/09/28 10:27:51;;;;;;;;;;;;;;;22.81;45.68;97374.88;6274038;23;19900;-82
2021/09/28 10:30:38;;;;;;;;;;;;;;;23.36;44.31;97366.13;6248052;23;19907;-81
2021/09/28 10:33:27;;;;;;;;;;;;;;;23.90;43.41;97372.72;6247852;23;19942;-80
2021/09/28 10:36:15;;;;;;;;;;;;;;;23.90;42.44;97378.88;6274257;23;19918;-81
2021/09/28 10:38:53;;;;;;;;;;;;;;;23.65;41.89;97371.31;6274278;23;19915;-82
2021/09/28 10:41:52;;;;;;;;;;;;;;;23.23;42.42;97369.94;6248085;23;19927;-81
2021/09/28 10:45:02;;;;;;;;;;;;;;;22.77;43.41;97357.78;6273540;23;19900;-84
2021/09/28 10:47:54;;;;;;;;;;;;;;;22.50;43.58;97353.06;6274043;23;19930;-81
2021/09/28 10:50:30;;;;;;;;;;;;;;;22.33;44.02;97347.72;6273773;23;19915;-80
2021/09/28 10:53:00;;;;;;;;;;;;;;;22.63;44.41;97347.44;6273779;23;19921;-80
2021/09/28 11:01:40;;;;;;;;;;;;;;;24.44;41.43;97341.56;6274203;23;19916;-81
2021/09/28 11:07:21;;;;;;;;;;;;;;;24.74;38.76;97336.81;6271841;23;19919;-81
2021/09/28 11:09:59;;;;;;;;;;;;;;;24.73;38.87;97329.84;6273990;23;19915;-81
2021/09/28 11:12:31;;;;;;;;;;;;;;;24.98;39.02;97321.22;6270140;23;19915;-81
2021/09/28 11:15:21;;;;;;;;;;;;;;;25.56;39.48;97321.31;6272746;23;19955;-81
2021/09/28 11:18:00;;;;;;;;;;;;;;;26.36;38.72;97321.03;6271590;23;19900;-81
2021/09/28 11:20:34;;;;;;;;;;;;;;;27.17;37.88;97311.41;6273347;23;19915;-81
2021/09/28 11:23:07;;;;;;;;;;;;;;;27.54;36.68;97311.03;6272165;23;19924;-81
2021/09/28 11:25:40;;;;;;;;;;;;;;;27.51;35.84;97312.41;6271413;23;19935;-82
2021/09/28 11:28:14;;;;;;;;;;;;;;;27.45;36.44;97302.78;6247133;23;19954;-81
2021/09/28 11:30:56;;;;;;;;;;;;;;;27.32;36.05;97298.00;6248189;23;19905;-81
2021/09/28 11:33:41;;;;;;;;;;;;;;;27.02;35.67;97288.91;6270341;23;19971;-81
2021/09/28 11:36:20;;;;;;;;;;;;;;;26.63;36.19;97289.53;6272676;23;19915;-81
2021/09/28 11:39:11;;;;;;;;;;;;;;;26.40;37.48;97284.66;6272740;23;19915;-81
2021/09/28 11:44:57;;;;;;;;;;;;;;;25.70;38.12;97290.38;6270230;23;19930;-80
2021/09/28 11:47:48;;;;;;;;;;;;;;;25.13;38.23;97281.28;6272173;23;19922;-81
2021/09/28 11:53:41;;;;;;;;;;;;;;;24.75;39.61;97266.34;6272237;23;19900;-80
2021/09/28 12:02:25;;;;;;;;;;;;;;;25.05;39.66;97263.88;6274479;22;19915;-83
2021/09/28 12:08:09;;;;;;;;;;;;;;;24.84;37.11;97256.84;6123163;23;19924;-82
2021/09/28 12:11:25;;;;;;;;;;;;;;;24.29;38.69;97260.63;6123213;23;19925;-82
2021/09/28 12:14:09;;;;;;;;;;;;;;;23.81;38.86;97255.94;6122832;23;19970;-83
2021/09/28 12:16:51;;;;;;;;;;;;;;;23.50;39.70;97259.28;6123070;23;19918;-82
2021/09/28 12:19:35;;;;;;;;;;;;;;;23.29;40.45;97259.03;6123014;23;19937;-82
2021/09/28 12:22:12;;;;;;;;;;;;;;;23.16;40.91;97259.41;6099281;23;19901;-82
2021/09/28 12:24:46;;;;;;;;;;;;;;;23.03;40.81;97253.38;6099473;23;19928;-83
2021/09/28 12:30:28;;;;;;;;;;;;;;;22.83;41.51;97247.75;6274109;23;19919;-82
2021/09/28 12:33:05;;;;;;;;;;;;;;;22.76;41.87;97236.47;6272930;22;19946;-82
2021/09/28 12:36:28;;;;;;;;;;;;;;;22.74;41.24;97230.56;6273777;23;19914;-83
2021/09/28 12:39:25;;;;;;;;;;;;;;;22.74;41.86;97235.91;6273004;23;19946;-82
2021/09/28 12:42:01;;;;;;;;;;;;;;;22.71;41.27;97231.06;6272756;22;19944;-83
2021/09/28 12:44:35;;;;;;;;;;;;;;;22.60;41.43;97219.47;6272368;23;19900;-82
2021/09/28 12:50:32;;;;;;;;;;;;;;;22.18;40.86;97218.00;6147570;23;19944;-80
2021/09/28 12:53:01;;;;;;;;;;;;;;;21.97;42.62;97210.75;6267311;23;19915;-81
2021/09/28 12:55:36;;;;;;;;;;;;;;;21.83;42.44;97204.13;6270871;23;19899;-79
2021/09/28 12:58:07;;;;;;;;;;;;;;;21.69;42.84;97203.59;6270947;23;19935;-80
2021/09/28 13:00:38;;;;;;;;;;;;;;;21.62;42.88;97198.44;6271107;23;19922;-80
2021/09/28 13:03:15;;;;;;;;;;;;;;;21.59;43.20;97185.66;6270850;23;19926;-78
2021/09/28 13:05:48;;;;;;;;;;;;;;;21.54;42.92;97189.03;6271370;23;19941;-79
2021/09/28 13:08:21;;;;;;;;;;;;;;;21.48;43.39;97189.16;6271913;23;19899;-82
2021/09/28 13:11:01;;;;;;;;;;;;;;;21.45;43.80;97182.50;6249374;23;19922;-82
2021/09/28 13:16:25;;;;;;;;;;;;;;;21.48;43.89;97181.22;6268496;22;19915;-81
2021/09/28 13:19:04;;;;;;;;;;;;;;;21.47;44.04;97174.28;6273373;23;19922;-80
2021/09/28 13:21:52;;;;;;;;;;;;;;;21.50;43.69;97173.81;6272707;23;19899;-81
2021/09/28 13:24:27;;;;;;;;;;;;;;;21.50;42.41;97173.81;6272640;23;19920;-81
2021/09/28 13:27:02;;;;;;;;;;;;;;;21.45;42.75;97160.44;6272637;23;19916;-80
2021/09/28 13:29:44;;;;;;;;;;;;;;;21.39;44.00;97165.63;6272894;23;19963;-80
2021/09/28 13:32:20;;;;;;;;;;;;;;;21.36;42.83;97158.16;6246971;23;19916;-81
2021/09/28 13:34:50;;;;;;;;;;;;;;;21.29;42.77;97157.47;6271773;23;19916;-81
2021/09/28 13:37:23;;;;;;;;;;;;;;;21.19;43.04;97151.97;6272824;23;19946;-80
2021/09/28 13:39:55;;;;;;;;;;;;;;;21.13;43.75;97153.72;6272718;23;19926;-80
2021/09/28 13:42:28;;;;;;;;;;;;;;;21.15;43.62;97156.13;6247032;23;19915;-81
2021/09/28 13:45:01;;;;;;;;;;;;;;;21.16;43.74;97152.44;6273696;23;19899;-80
2021/09/28 13:47:34;;;;;;;;;;;;;;;21.16;43.31;97152.44;6274491;22;19934;-80
2021/09/28 13:50:04;;;;;;;;;;;;;;;21.13;43.58;97147.59;6275231;23;19920;-80
2021/09/28 13:52:37;;;;;;;;;;;;;;;21.07;43.70;97138.72;6249053;23;19938;-81
2021/09/28 13:55:27;;;;;;;;;;;;;;;21.05;43.80;97129.41;6251991;23;19916;-80
2021/09/28 13:58:01;;;;;;;;;;;;;;;21.03;43.62;97134.13;6275130;23;19899;-80
2021/09/28 14:00:30;;;;;;;;;;;;;;;21.00;43.02;97132.78;6274535;22;19980;-81
2021/09/28 14:03:04;;;;;;;;;;;;;;;20.93;43.81;97132.09;6274613;23;19900;-80
2021/09/28 14:05:44;;;;;;;;;;;;;;;20.89;43.63;97133.59;6274770;23;19935;-80
2021/09/28 14:08:19;;;;;;;;;;;;;;;20.83;43.78;97134.53;6274051;23;19922;-80